Time;durP1;ratioP1;P1;durP2;ratioP2;P2;SDS_P1;SDS_P2;PMS_P1;PMS_P2;Temp;Humidity;BMP_temperature;BMP_pressure;BME280_temperature;BME280_humidity;BME280_pressure;Samples;Min_cycle;Max_cycle;Signal;HPM_P1;HPM_P2
2022/01/03 00:01:27;;;;;;;82.13;49.70;;;;;;;;;;5086938;28;20028;-41
2022/01/03 00:03:54;;;;;;;96.15;59.90;;;;;;;;;;5092841;28;20029;-41
2022/01/03 00:06:20;;;;;;;81.88;51.72;;;;;;;;;;5092527;28;20115;-40
2022/01/03 00:08:46;;;;;;;84.95;49.35;;;;;;;;;;5092678;28;20024;-41
2022/01/03 00:11:14;;;;;;;96.97;56.85;;;;;;;;;;5092476;28;20044;-41
2022/01/03 00:13:50;;;;;;;74.25;46.17;;;;;;;;;;5092715;28;20502;-42
2022/01/03 00:16:16;;;;;;;80.07;46.90;;;;;;;;;;5092493;28;20040;-42
2022/01/03 00:18:43;;;;;;;78.85;47.28;;;;;;;;;;5092690;28;20474;-42
2022/01/03 00:21:17;;;;;;;76.75;46.95;;;;;;;;;;5092709;28;20028;-41
2022/01/03 00:23:51;;;;;;;116.22;67.20;;;;;;;;;;5090914;28;20024;-43
2022/01/03 00:26:20;;;;;;;100.22;58.60;;;;;;;;;;5067970;28;20028;-40
2022/01/03 00:29:06;;;;;;;86.43;51.10;;;;;;;;;;5068096;28;20063;-43
2022/01/03 00:31:38;;;;;;;70.68;42.70;;;;;;;;;;5025429;28;20055;-41
2022/01/03 00:34:04;;;;;;;;;;;;;;;;;;5028980;28;20148;-42
2022/01/03 00:36:31;;;;;;;73.38;45.33;;;;;;;;;;5028184;28;19966;-43
2022/01/03 00:38:59;;;;;;;87.38;52.25;;;;;;;;;;5028831;28;20772;-40
2022/01/03 00:41:28;;;;;;;74.28;44.90;;;;;;;;;;5028482;28;20025;-44
2022/01/03 00:43:54;;;;;;;73.47;44.28;;;;;;;;;;5028374;28;20067;-40
2022/01/03 00:46:21;;;;;;;82.78;51.10;;;;;;;;;;5028202;28;20491;-42
2022/01/03 00:48:47;;;;;;;67.07;40.60;;;;;;;;;;5028343;28;20045;-41
2022/01/03 00:51:19;;;;;;;59.42;37.08;;;;;;;;;;5027523;28;20041;-40
2022/01/03 00:53:46;;;;;;;;;;;;;;;;;;5045208;28;20017;-43
2022/01/03 00:56:35;;;;;;;60.63;35.58;;;;;;;;;;5053532;28;19919;-42
2022/01/03 00:59:07;;;;;;;58.17;36.65;;;;;;;;;;5053727;28;20035;-42
2022/01/03 01:01:36;;;;;;;51.42;33.90;;;;;;;;;;5053531;28;20043;-41
2022/01/03 01:04:05;;;;;;;56.42;35.90;;;;;;;;;;5053794;28;20570;-41
2022/01/03 01:06:33;;;;;;;57.20;34.95;;;;;;;;;;5053670;28;20036;-41
2022/01/03 01:09:01;;;;;;;59.33;35.20;;;;;;;;;;5079038;28;20032;-41
2022/01/03 01:11:30;;;;;;;61.45;35.13;;;;;;;;;;5095855;28;20065;-40
2022/01/03 01:13:56;;;;;;;58.20;34.88;;;;;;;;;;5095700;28;20058;-42
2022/01/03 01:16:23;;;;;;;63.90;39.33;;;;;;;;;;5095574;28;20062;-43
2022/01/03 01:18:49;;;;;;;52.60;34.90;;;;;;;;;;5095604;28;20037;-41
2022/01/03 01:21:16;;;;;;;53.63;34.85;;;;;;;;;;5095703;28;20051;-41
2022/01/03 01:23:43;;;;;;;52.70;33.30;;;;;;;;;;5095449;28;20027;-42
2022/01/03 01:28:54;;;;;;;51.80;34.88;;;;;;;;;;5095283;28;20059;-42
2022/01/03 01:31:21;;;;;;;69.32;39.55;;;;;;;;;;5095175;28;20079;-41
2022/01/03 01:33:51;;;;;;;54.50;34.85;;;;;;;;;;5095344;28;20024;-41
2022/01/03 01:36:18;;;;;;;53.97;35.30;;;;;;;;;;5095321;28;20146;-42
2022/01/03 01:38:48;;;;;;;55.17;35.88;;;;;;;;;;5095190;28;20044;-42
2022/01/03 01:41:17;;;;;;;61.97;39.30;;;;;;;;;;5095245;28;20477;-41
2022/01/03 01:43:44;;;;;;;66.00;39.28;;;;;;;;;;5094942;28;20367;-42
2022/01/03 01:46:17;;;;;;;62.85;36.33;;;;;;;;;;5095145;28;20396;-41
2022/01/03 01:48:44;;;;;;;67.82;40.47;;;;;;;;;;5095042;28;20020;-41
2022/01/03 01:51:12;;;;;;;73.15;41.55;;;;;;;;;;5094990;28;20473;-41
2022/01/03 01:53:44;;;;;;;72.68;38.78;;;;;;;;;;5094822;28;20024;-41
2022/01/03 01:56:16;;;;;;;61.72;38.50;;;;;;;;;;5094831;28;20063;-41
2022/01/03 01:59:03;;;;;;;69.65;42.40;;;;;;;;;;5095301;28;20103;-41
2022/01/03 02:01:47;;;;;;;47.60;31.92;;;;;;;;;;5095279;28;20022;-40
2022/01/03 02:04:15;;;;;;;67.57;38.72;;;;;;;;;;5094794;28;20032;-39
2022/01/03 02:06:44;;;;;;;59.17;37.42;;;;;;;;;;5094764;28;20028;-39
2022/01/03 02:09:18;;;;;;;59.58;36.85;;;;;;;;;;5094840;28;20039;-42
2022/01/03 02:11:54;;;;;;;54.28;34.85;;;;;;;;;;5094538;28;20036;-39
2022/01/03 02:14:24;;;;;;;59.00;36.78;;;;;;;;;;5094493;28;20020;-41
2022/01/03 02:16:53;;;;;;;62.95;37.10;;;;;;;;;;5094342;28;20036;-41
2022/01/03 02:19:20;;;;;;;63.53;39.92;;;;;;;;;;5094431;28;20125;-41
2022/01/03 02:21:46;;;;;;;76.65;47.20;;;;;;;;;;5094395;28;20031;-41
2022/01/03 02:24:15;;;;;;;61.83;38.58;;;;;;;;;;5094344;28;20050;-41
2022/01/03 02:26:41;;;;;;;56.60;36.78;;;;;;;;;;5094117;28;20031;-40
2022/01/03 02:29:09;;;;;;;51.88;32.45;;;;;;;;;;5094344;28;20028;-40
2022/01/03 02:31:36;;;;;;;57.08;34.75;;;;;;;;;;5094134;28;20032;-40
2022/01/03 02:34:03;;;;;;;54.50;33.33;;;;;;;;;;5094057;28;20020;-40
2022/01/03 02:36:33;;;;;;;53.47;33.10;;;;;;;;;;5094046;28;20027;-41
2022/01/03 02:38:59;;;;;;;51.45;31.42;;;;;;;;;;5094235;28;20028;-41
2022/01/03 02:41:25;;;;;;;48.40;32.50;;;;;;;;;;5094188;28;20035;-40
2022/01/03 02:43:52;;;;;;;44.95;30.17;;;;;;;;;;5093886;28;20069;-40
2022/01/03 02:46:18;;;;;;;47.30;29.75;;;;;;;;;;5093887;28;20512;-40
2022/01/03 02:48:44;;;;;;;57.50;35.95;;;;;;;;;;5093855;28;20024;-40
2022/01/03 02:51:14;;;;;;;45.80;30.85;;;;;;;;;;5093975;28;20059;-40
2022/01/03 02:53:42;;;;;;;46.67;29.98;;;;;;;;;;5093965;28;20027;-41
2022/01/03 02:56:08;;;;;;;48.97;31.02;;;;;;;;;;5093048;28;20034;-41
2022/01/03 02:58:34;;;;;;;47.05;30.58;;;;;;;;;;5093844;28;20073;-40
2022/01/03 03:01:01;;;;;;;43.30;28.70;;;;;;;;;;5093824;28;20075;-40
2022/01/03 03:03:27;;;;;;;40.70;27.52;;;;;;;;;;5093555;28;20489;-40
2022/01/03 03:05:53;;;;;;;46.00;30.73;;;;;;;;;;5093859;28;20111;-41
2022/01/03 03:08:22;;;;;;;43.92;29.00;;;;;;;;;;5093695;28;20031;-41
2022/01/03 03:10:48;;;;;;;50.80;33.45;;;;;;;;;;5093476;28;20056;-40
2022/01/03 03:13:14;;;;;;;42.40;27.50;;;;;;;;;;5093572;28;20020;-41
2022/01/03 03:15:40;;;;;;;46.78;29.58;;;;;;;;;;5093347;28;20024;-41
2022/01/03 03:18:07;;;;;;;47.00;30.45;;;;;;;;;;5093404;28;20039;-41
2022/01/03 03:20:35;;;;;;;43.88;28.45;;;;;;;;;;5093644;28;20077;-40
2022/01/03 03:23:02;;;;;;;41.03;27.67;;;;;;;;;;5093540;28;20051;-41
2022/01/03 03:25:29;;;;;;;39.47;27.15;;;;;;;;;;5093541;28;20494;-41
2022/01/03 03:28:00;;;;;;;39.42;27.17;;;;;;;;;;5093103;28;20044;-41
2022/01/03 03:30:33;;;;;;;45.88;30.55;;;;;;;;;;5093324;28;20036;-40
2022/01/03 03:33:06;;;;;;;64.45;40.00;;;;;;;;;;5093253;28;20144;-41
2022/01/03 03:35:32;;;;;;;54.20;32.63;;;;;;;;;;5093689;28;20055;-41
2022/01/03 03:37:58;;;;;;;42.50;28.80;;;;;;;;;;5093429;28;20021;-40
2022/01/03 03:40:24;;;;;;;45.60;29.58;;;;;;;;;;5093203;28;20035;-42
2022/01/03 03:42:53;;;;;;;42.10;29.58;;;;;;;;;;5093327;28;20056;-40
2022/01/03 03:45:19;;;;;;;46.72;30.80;;;;;;;;;;5093213;28;20012;-41
2022/01/03 03:47:48;;;;;;;54.10;34.45;;;;;;;;;;5093167;28;20474;-41
2022/01/03 03:50:18;;;;;;;47.45;32.17;;;;;;;;;;5093155;28;20020;-41
2022/01/03 03:52:44;;;;;;;46.50;30.63;;;;;;;;;;5093165;28;20031;-41
2022/01/03 03:55:11;;;;;;;41.08;27.92;;;;;;;;;;5093229;28;20401;-40
2022/01/03 03:57:37;;;;;;;41.95;27.13;;;;;;;;;;5093057;28;20103;-41
2022/01/03 04:00:05;;;;;;;41.08;25.95;;;;;;;;;;5093362;28;20059;-41
2022/01/03 04:02:31;;;;;;;39.55;25.77;;;;;;;;;;5093033;28;20035;-41
2022/01/03 04:04:59;;;;;;;41.22;28.30;;;;;;;;;;5093052;28;20032;-54
2022/01/03 04:07:25;;;;;;;42.47;28.77;;;;;;;;;;5094375;28;20047;-42
2022/01/03 04:09:51;;;;;;;47.90;30.30;;;;;;;;;;5097188;28;20028;-42
2022/01/03 04:12:17;;;;;;;44.83;29.58;;;;;;;;;;5096813;28;20038;-42
2022/01/03 04:14:43;;;;;;;43.25;28.33;;;;;;;;;;5096874;28;20031;-41
2022/01/03 04:17:12;;;;;;;43.28;28.75;;;;;;;;;;5096914;28;20640;-41
2022/01/03 04:19:38;;;;;;;42.97;28.17;;;;;;;;;;5097112;28;20024;-47
2022/01/03 04:22:04;;;;;;;48.58;31.60;;;;;;;;;;5096938;28;20020;-43
2022/01/03 04:24:30;;;;;;;48.80;29.88;;;;;;;;;;5095460;28;20028;-41
2022/01/03 04:26:57;;;;;;;43.05;29.73;;;;;;;;;;5096406;28;20028;-45
2022/01/03 04:29:26;;;;;;;51.22;33.85;;;;;;;;;;5096689;28;20032;-50
2022/01/03 04:31:55;;;;;;;59.75;35.53;;;;;;;;;;5096717;28;20047;-48
2022/01/03 04:34:21;;;;;;;67.40;40.10;;;;;;;;;;5096669;28;20045;-43
2022/01/03 04:36:47;;;;;;;66.50;40.30;;;;;;;;;;5096462;28;20034;-48
2022/01/03 04:39:13;;;;;;;77.72;44.08;;;;;;;;;;5096463;28;20496;-39
2022/01/03 04:41:39;;;;;;;67.45;41.38;;;;;;;;;;5096278;28;20036;-40
2022/01/03 04:44:06;;;;;;;59.83;38.45;;;;;;;;;;5096298;28;20020;-41
2022/01/03 04:46:35;;;;;;;60.83;37.92;;;;;;;;;;5096072;28;20051;-45
2022/01/03 04:49:01;;;;;;;61.67;38.60;;;;;;;;;;5096243;28;20032;-53
2022/01/03 04:51:28;;;;;;;62.05;40.60;;;;;;;;;;5096221;28;20032;-50
2022/01/03 04:53:54;;;;;;;67.95;39.83;;;;;;;;;;5096139;28;20052;-52
2022/01/03 04:56:20;;;;;;;77.80;43.05;;;;;;;;;;5095851;28;20150;-41
2022/01/03 04:58:46;;;;;;;99.22;50.45;;;;;;;;;;5096069;28;20035;-48
2022/01/03 05:01:12;;;;;;;112.03;55.10;;;;;;;;;;5095754;28;20024;-40
2022/01/03 05:03:38;;;;;;;111.75;53.03;;;;;;;;;;5096027;28;20491;-44
2022/01/03 05:06:07;;;;;;;110.40;54.13;;;;;;;;;;5095836;28;20055;-52
2022/01/03 05:08:33;;;;;;;123.25;60.05;;;;;;;;;;5095974;28;20493;-50
2022/01/03 05:11:03;;;;;;;210.00;100.53;;;;;;;;;;5095944;28;20095;-43
2022/01/03 05:13:29;;;;;;;196.65;99.10;;;;;;;;;;5096022;28;20473;-40
2022/01/03 05:15:56;;;;;;;167.80;87.75;;;;;;;;;;5095678;28;20048;-46
2022/01/03 05:18:22;;;;;;;161.10;87.07;;;;;;;;;;5095273;28;20457;-41
2022/01/03 05:20:48;;;;;;;141.48;74.10;;;;;;;;;;5095727;28;20024;-41
2022/01/03 05:23:14;;;;;;;132.68;74.03;;;;;;;;;;5095678;28;20091;-42
2022/01/03 05:25:40;;;;;;;123.72;70.13;;;;;;;;;;5095592;28;20473;-42
2022/01/03 05:28:06;;;;;;;85.85;51.58;;;;;;;;;;5095413;28;20044;-41
2022/01/03 05:30:32;;;;;;;68.38;42.38;;;;;;;;;;5095988;28;20458;-41
2022/01/03 05:32:59;;;;;;;57.20;38.55;;;;;;;;;;5095320;28;20036;-41
2022/01/03 05:35:25;;;;;;;57.92;37.13;;;;;;;;;;5095651;28;20382;-42
2022/01/03 05:37:51;;;;;;;62.40;39.35;;;;;;;;;;5095560;28;20032;-39
2022/01/03 05:40:17;;;;;;;59.70;38.38;;;;;;;;;;5095381;28;20031;-41
2022/01/03 05:42:46;;;;;;;52.20;35.45;;;;;;;;;;5086110;28;20501;-42
2022/01/03 05:45:12;;;;;;;50.55;34.08;;;;;;;;;;5069526;28;20025;-42
2022/01/03 05:47:40;;;;;;;56.20;36.30;;;;;;;;;;5069805;28;20095;-41
2022/01/03 05:50:06;;;;;;;57.15;36.17;;;;;;;;;;5069754;28;20032;-42
2022/01/03 05:52:33;;;;;;;57.45;37.53;;;;;;;;;;5069639;28;20051;-41
2022/01/03 05:54:59;;;;;;;61.03;39.72;;;;;;;;;;5069953;28;20713;-45
2022/01/03 05:57:25;;;;;;;59.38;39.13;;;;;;;;;;5069163;28;20544;-40
2022/01/03 05:59:51;;;;;;;61.67;39.78;;;;;;;;;;5069884;28;20083;-41
2022/01/03 06:02:24;;;;;;;65.70;41.63;;;;;;;;;;5069332;28;20110;-40
2022/01/03 06:04:57;;;;;;;55.55;39.55;;;;;;;;;;5069713;28;20110;-41
2022/01/03 06:07:23;;;;;;;66.28;41.15;;;;;;;;;;5069691;28;20511;-40
2022/01/03 06:09:50;;;;;;;67.40;42.97;;;;;;;;;;5069704;28;20082;-40
2022/01/03 06:12:17;;;;;;;71.65;44.13;;;;;;;;;;5069735;28;20074;-40
2022/01/03 06:14:44;;;;;;;68.78;44.00;;;;;;;;;;5069138;28;20051;-39
2022/01/03 06:17:10;;;;;;;74.70;44.53;;;;;;;;;;5069862;28;20232;-40
2022/01/03 06:19:37;;;;;;;71.38;43.20;;;;;;;;;;5069209;28;21260;-39
2022/01/03 06:22:03;;;;;;;71.68;44.08;;;;;;;;;;5069503;28;20594;-42
2022/01/03 06:24:32;;;;;;;78.13;47.80;;;;;;;;;;5069286;28;20024;-40
2022/01/03 06:27:00;;;;;;;81.80;48.65;;;;;;;;;;5068825;28;20032;-42
2022/01/03 06:29:27;;;;;;;96.03;58.80;;;;;;;;;;5068475;28;20028;-42
2022/01/03 06:31:55;;;;;;;99.00;59.42;;;;;;;;;;5068446;28;20052;-41
2022/01/03 06:34:21;;;;;;;104.85;63.88;;;;;;;;;;5069383;28;20625;-41
2022/01/03 06:36:48;;;;;;;101.60;63.85;;;;;;;;;;5069304;28;20119;-41
2022/01/03 06:39:16;;;;;;;106.72;66.70;;;;;;;;;;5069174;28;20012;-41
2022/01/03 06:41:45;;;;;;;108.07;64.72;;;;;;;;;;5068984;28;20027;-42
2022/01/03 06:44:12;;;;;;;164.15;88.57;;;;;;;;;;5068922;28;20028;-41
2022/01/03 06:46:38;;;;;;;120.68;66.05;;;;;;;;;;5068984;28;20457;-42
2022/01/03 06:49:06;;;;;;;124.72;64.20;;;;;;;;;;5068618;28;20374;-42
2022/01/03 06:51:36;;;;;;;104.28;58.45;;;;;;;;;;5068755;28;20035;-42
2022/01/03 06:54:04;;;;;;;117.60;65.90;;;;;;;;;;5068843;28;20139;-41
2022/01/03 06:56:30;;;;;;;107.22;60.88;;;;;;;;;;5068747;28;20470;-41
2022/01/03 06:58:56;;;;;;;110.00;62.83;;;;;;;;;;5068405;28;20038;-41
2022/01/03 07:01:22;;;;;;;79.70;49.47;;;;;;;;;;5068920;28;20116;-41
2022/01/03 07:03:48;;;;;;;77.03;46.85;;;;;;;;;;5068337;28;20453;-42
2022/01/03 07:06:14;;;;;;;74.68;48.30;;;;;;;;;;5068756;28;20032;-42
2022/01/03 07:08:40;;;;;;;82.30;51.88;;;;;;;;;;5068435;28;20066;-43
2022/01/03 07:11:06;;;;;;;84.10;51.40;;;;;;;;;;5068114;28;20533;-42
2022/01/03 07:13:41;;;;;;;85.20;51.20;;;;;;;;;;5068240;28;20024;-42
2022/01/03 07:18:59;;;;;;;76.80;48.58;;;;;;;;;;5068442;28;20046;-42
2022/01/03 07:21:25;;;;;;;83.90;53.88;;;;;;;;;;5068065;28;20523;-42
2022/01/03 07:23:51;;;;;;;77.82;53.88;;;;;;;;;;5068289;28;20062;-42
2022/01/03 07:26:18;;;;;;;92.90;57.55;;;;;;;;;;5067983;28;20035;-42
2022/01/03 07:28:44;;;;;;;84.50;55.60;;;;;;;;;;5068225;28;21218;-42
2022/01/03 07:31:10;;;;;;;79.72;52.63;;;;;;;;;;5068009;28;20036;-42
2022/01/03 07:33:36;;;;;;;102.05;65.93;;;;;;;;;;5068226;28;20102;-42
2022/01/03 07:36:04;;;;;;;125.55;87.07;;;;;;;;;;5068178;28;20035;-42
2022/01/03 07:38:30;;;;;;;116.30;79.80;;;;;;;;;;5068126;28;20024;-42
2022/01/03 07:40:57;;;;;;;143.63;94.95;;;;;;;;;;5068350;28;20111;-42
2022/01/03 07:43:23;;;;;;;163.82;103.35;;;;;;;;;;5072295;28;20118;-41
2022/01/03 07:45:50;;;;;;;129.88;85.07;;;;;;;;;;5072475;28;20407;-43
2022/01/03 07:48:16;;;;;;;121.75;77.05;;;;;;;;;;5071806;28;20425;-41
2022/01/03 07:50:42;;;;;;;129.57;82.97;;;;;;;;;;5071919;28;20568;-39
2022/01/03 07:53:08;;;;;;;135.25;82.88;;;;;;;;;;5071975;28;20038;-39
2022/01/03 07:55:34;;;;;;;124.35;77.88;;;;;;;;;;5071645;28;20028;-41
2022/01/03 07:58:00;;;;;;;105.05;66.10;;;;;;;;;;5071883;28;20020;-39
2022/01/03 08:00:29;;;;;;;96.70;57.45;;;;;;;;;;5071690;28;20529;-39
2022/01/03 08:02:55;;;;;;;144.13;78.88;;;;;;;;;;5071999;28;20036;-41
2022/01/03 08:05:21;;;;;;;159.85;87.32;;;;;;;;;;5071871;28;20408;-42
2022/01/03 08:07:47;;;;;;;268.58;129.38;;;;;;;;;;5071828;28;20031;-41
2022/01/03 08:10:14;;;;;;;201.52;107.75;;;;;;;;;;5071506;28;20517;-40
2022/01/03 08:12:44;;;;;;;119.05;70.05;;;;;;;;;;5071279;28;20039;-41
2022/01/03 08:15:13;;;;;;;106.80;66.13;;;;;;;;;;5072187;28;20055;-43
2022/01/03 08:17:39;;;;;;;150.85;86.53;;;;;;;;;;5071551;28;20016;-42
2022/01/03 08:20:05;;;;;;;181.77;99.75;;;;;;;;;;5071135;28;20552;-45
2022/01/03 08:22:34;;;;;;;188.23;107.90;;;;;;;;;;5071437;28;20031;-42
2022/01/03 08:25:00;;;;;;;209.35;112.28;;;;;;;;;;5071379;28;20950;-42
2022/01/03 08:27:26;;;;;;;162.90;93.57;;;;;;;;;;5071320;28;20050;-43
2022/01/03 08:29:52;;;;;;;135.57;76.43;;;;;;;;;;5071166;28;20020;-43
2022/01/03 08:32:18;;;;;;;126.53;74.88;;;;;;;;;;5071245;28;20448;-42
2022/01/03 08:34:44;;;;;;;91.88;58.05;;;;;;;;;;5071345;28;20020;-46
2022/01/03 08:37:10;;;;;;;86.70;54.10;;;;;;;;;;5070697;28;20027;-44
2022/01/03 08:39:37;;;;;;;72.05;47.00;;;;;;;;;;5071019;28;20162;-42
2022/01/03 08:42:05;;;;;;;74.25;47.22;;;;;;;;;;5071229;28;20035;-42
2022/01/03 08:44:31;;;;;;;97.25;59.35;;;;;;;;;;5071446;28;20031;-42
2022/01/03 08:46:57;;;;;;;91.28;52.30;;;;;;;;;;5070746;28;20890;-44
2022/01/03 08:49:26;;;;;;;82.40;49.08;;;;;;;;;;5071010;28;20025;-44
2022/01/03 08:51:52;;;;;;;74.10;47.63;;;;;;;;;;5070939;28;20064;-42
2022/01/03 08:54:18;;;;;;;68.72;44.22;;;;;;;;;;5069904;28;20322;-43
2022/01/03 08:56:44;;;;;;;66.07;42.33;;;;;;;;;;5070648;28;20428;-43
2022/01/03 08:59:13;;;;;;;69.32;44.55;;;;;;;;;;5071217;28;20020;-44
2022/01/03 09:01:39;;;;;;;59.72;40.67;;;;;;;;;;5070689;28;20039;-42
2022/01/03 09:04:05;;;;;;;69.28;45.22;;;;;;;;;;5070836;28;20118;-42
2022/01/03 09:06:33;;;;;;;65.00;42.67;;;;;;;;;;5070795;28;20032;-44
2022/01/03 09:09:01;;;;;;;65.35;42.83;;;;;;;;;;5070555;28;20016;-45
2022/01/03 09:11:27;;;;;;;63.45;39.80;;;;;;;;;;5070585;28;20237;-44
2022/01/03 09:13:54;;;;;;;65.88;41.70;;;;;;;;;;5070277;28;20485;-44
2022/01/03 09:16:20;;;;;;;53.15;33.97;;;;;;;;;;5070553;28;20382;-44
2022/01/03 09:18:46;;;;;;;65.57;40.30;;;;;;;;;;5069853;28;20159;-44
2022/01/03 09:21:14;;;;;;;76.85;44.03;;;;;;;;;;5070690;28;20023;-44
2022/01/03 09:23:46;;;;;;;102.28;56.53;;;;;;;;;;5069761;28;20631;-43
2022/01/03 09:28:57;;;;;;;100.35;56.58;;;;;;;;;;5070076;28;20058;-43
2022/01/03 09:31:24;;;;;;;129.20;68.50;;;;;;;;;;5068363;28;20366;-44
2022/01/03 09:33:52;;;;;;;112.90;61.03;;;;;;;;;;5069941;28;21228;-44
2022/01/03 09:36:18;;;;;;;88.85;48.47;;;;;;;;;;5069411;28;20058;-43
2022/01/03 09:38:44;;;;;;;82.80;41.55;;;;;;;;;;5069903;28;20055;-43
2022/01/03 09:41:11;;;;;;;67.50;38.17;;;;;;;;;;5069909;28;20020;-42
2022/01/03 09:43:47;;;;;;;78.13;43.50;;;;;;;;;;5069972;28;20570;-45
2022/01/03 09:46:20;;;;;;;83.57;42.72;;;;;;;;;;5069920;28;20028;-43
2022/01/03 09:48:52;;;;;;;97.22;48.70;;;;;;;;;;5069834;28;20040;-44
2022/01/03 09:51:19;;;;;;;66.55;35.42;;;;;;;;;;5069540;28;20067;-45
2022/01/03 09:53:45;;;;;;;63.30;37.13;;;;;;;;;;5069652;28;20424;-45
2022/01/03 09:56:11;;;;;;;73.07;41.03;;;;;;;;;;5069436;28;20035;-46
2022/01/03 09:58:38;;;;;;;86.05;45.90;;;;;;;;;;5069460;28;20033;-46
2022/01/03 10:01:06;;;;;;;67.57;38.60;;;;;;;;;;5070108;28;20028;-45
2022/01/03 10:03:34;;;;;;;63.03;35.65;;;;;;;;;;5068990;28;20072;-48
2022/01/03 10:06:01;;;;;;;75.20;40.80;;;;;;;;;;5069445;28;20111;-48
2022/01/03 10:08:27;;;;;;;56.80;34.90;;;;;;;;;;5069543;28;20432;-47
2022/01/03 10:10:58;;;;;;;53.03;30.58;;;;;;;;;;5069610;28;20077;-48
2022/01/03 10:13:24;;;;;;;84.37;45.50;;;;;;;;;;5069433;28;20731;-49
2022/01/03 10:15:50;;;;;;;53.97;32.95;;;;;;;;;;5069251;28;20020;-47
2022/01/03 10:18:19;;;;;;;58.17;33.15;;;;;;;;;;5069116;28;20020;-46
2022/01/03 10:20:46;;;;;;;46.42;27.05;;;;;;;;;;5069077;28;20020;-46
2022/01/03 10:23:14;;;;;;;42.70;26.13;;;;;;;;;;5069113;28;20742;-45
2022/01/03 10:25:41;;;;;;;48.25;29.48;;;;;;;;;;5068872;28;20043;-45
2022/01/03 10:28:07;;;;;;;49.30;28.98;;;;;;;;;;5068635;28;20037;-46
2022/01/03 10:30:40;;;;;;;50.17;30.98;;;;;;;;;;5069331;28;20024;-47
2022/01/03 10:33:23;;;;;;;51.42;30.90;;;;;;;;;;5068967;28;20036;-46
2022/01/03 10:35:50;;;;;;;47.33;28.92;;;;;;;;;;5068903;28;20548;-46
2022/01/03 10:38:38;;;;;;;54.78;33.17;;;;;;;;;;5069234;28;20035;-46
2022/01/03 10:41:14;;;;;;;47.35;27.98;;;;;;;;;;5069014;28;20024;-46
2022/01/03 10:43:41;;;;;;;46.58;29.02;;;;;;;;;;5067170;28;20036;-46
2022/01/03 10:46:28;;;;;;;59.88;34.75;;;;;;;;;;5068764;28;20302;-46
2022/01/03 10:49:16;;;;;;;63.92;32.35;;;;;;;;;;5068520;28;20087;-46
2022/01/03 10:51:42;;;;;;;57.63;30.90;;;;;;;;;;5069110;28;20088;-47
2022/01/03 10:54:09;;;;;;;64.00;31.48;;;;;;;;;;5068443;28;20038;-45
2022/01/03 10:56:40;;;;;;;56.47;29.35;;;;;;;;;;5068430;28;20030;-44
2022/01/03 10:59:25;;;;;;;47.77;27.83;;;;;;;;;;5068904;28;20473;-46
2022/01/03 11:02:01;;;;;;;42.85;25.75;;;;;;;;;;5068652;28;20565;-46
2022/01/03 11:04:35;;;;;;;46.30;25.42;;;;;;;;;;5068115;28;20459;-46
2022/01/03 11:10:43;;;;;;;41.13;22.55;;;;;;;;;;5068560;28;20058;-46
2022/01/03 11:13:14;;;;;;;43.58;22.40;;;;;;;;;;5068046;28;20082;-45
2022/01/03 11:15:42;;;;;;;46.85;27.88;;;;;;;;;;5067642;28;20401;-44
2022/01/03 11:18:09;;;;;;;35.95;22.08;;;;;;;;;;5068643;28;20546;-45
2022/01/03 11:20:35;;;;;;;35.67;20.05;;;;;;;;;;5068147;28;20050;-55
2022/01/03 11:23:01;;;;;;;39.45;23.42;;;;;;;;;;5068316;28;20028;-56
2022/01/03 11:25:33;;;;;;;47.35;29.30;;;;;;;;;;5068064;28;20087;-53
2022/01/03 11:28:00;;;;;;;54.20;29.45;;;;;;;;;;5067676;28;20109;-52
2022/01/03 11:30:27;;;;;;;51.80;30.10;;;;;;;;;;5068450;28;21134;-52
2022/01/03 11:32:53;;;;;;;26.98;19.15;;;;;;;;;;5068131;28;20513;-49
2022/01/03 11:35:19;;;;;;;55.92;37.17;;;;;;;;;;5067945;28;20357;-51
2022/01/03 11:37:46;;;;;;;35.72;21.92;;;;;;;;;;5067974;28;20032;-52
2022/01/03 11:40:14;;;;;;;49.15;31.13;;;;;;;;;;5068144;28;20078;-51
2022/01/03 11:42:41;;;;;;;27.90;16.23;;;;;;;;;;5068443;28;20028;-52
2022/01/03 11:45:08;;;;;;;33.28;22.25;;;;;;;;;;5067678;28;20032;-53
2022/01/03 11:47:35;;;;;;;41.67;26.88;;;;;;;;;;5068304;28;20059;-42
2022/01/03 11:50:01;;;;;;;44.28;25.67;;;;;;;;;;5068053;28;20069;-47
2022/01/03 11:52:28;;;;;;;39.88;22.77;;;;;;;;;;5067874;28;20201;-47
2022/01/03 11:54:55;;;;;;;34.00;20.33;;;;;;;;;;5067499;28;20341;-51
2022/01/03 11:57:41;;;;;;;33.40;20.38;;;;;;;;;;5068047;28;20052;-46
2022/01/03 12:05:53;;;;;;;34.25;20.08;;;;;;;;;;5068201;28;20038;-47
2022/01/03 12:08:20;;;;;;;36.53;21.30;;;;;;;;;;5067580;28;20047;-45
2022/01/03 12:10:46;;;;;;;36.63;21.25;;;;;;;;;;5067781;28;20032;-47
2022/01/03 12:13:13;;;;;;;39.65;23.77;;;;;;;;;;5067884;28;20443;-44
2022/01/03 12:15:41;;;;;;;34.58;21.70;;;;;;;;;;5067540;28;20079;-47
2022/01/03 12:18:26;;;;;;;35.05;19.95;;;;;;;;;;5067902;28;20330;-46
2022/01/03 12:20:53;;;;;;;32.33;21.13;;;;;;;;;;5068052;28;20445;-44
2022/01/03 12:23:39;;;;;;;28.75;19.00;;;;;;;;;;5067627;28;20036;-44
2022/01/03 12:26:09;;;;;;;32.58;19.20;;;;;;;;;;5067537;28;20036;-44
2022/01/03 12:28:54;;;;;;;29.47;17.93;;;;;;;;;;5069228;28;20116;-44
2022/01/03 12:31:20;;;;;;;33.92;19.05;;;;;;;;;;5071013;28;20085;-47
2022/01/03 12:34:05;;;;;;;35.95;19.13;;;;;;;;;;5071365;28;20067;-46
2022/01/03 12:36:31;;;;;;;28.58;17.38;;;;;;;;;;5070819;28;20035;-45
2022/01/03 12:39:05;;;;;;;24.65;15.60;;;;;;;;;;5070876;28;20027;-44
2022/01/03 12:41:41;;;;;;;23.33;14.27;;;;;;;;;;5071120;28;20618;-45
2022/01/03 12:44:09;;;;;;;26.70;15.98;;;;;;;;;;5071419;28;20031;-46
2022/01/03 12:46:35;;;;;;;22.60;13.38;;;;;;;;;;5071268;28;20477;-45
2022/01/03 12:49:21;;;;;;;25.40;15.55;;;;;;;;;;5071082;28;20151;-46
2022/01/03 12:51:47;;;;;;;25.33;16.73;;;;;;;;;;5070697;28;20081;-45
2022/01/03 12:54:13;;;;;;;26.20;16.85;;;;;;;;;;5071538;28;20028;-44
2022/01/03 12:56:39;;;;;;;29.02;15.52;;;;;;;;;;5070922;28;20032;-45
2022/01/03 12:59:12;;;;;;;23.88;15.57;;;;;;;;;;5069261;28;20437;-45
2022/01/03 13:01:38;;;;;;;26.55;15.90;;;;;;;;;;5070341;28;20522;-43
2022/01/03 13:04:19;;;;;;;24.75;13.90;;;;;;;;;;5071282;28;20165;-44
2022/01/03 13:06:46;;;;;;;26.27;14.98;;;;;;;;;;5070673;28;20027;-46
2022/01/03 13:09:13;;;;;;;32.30;17.35;;;;;;;;;;5070779;28;20464;-45
2022/01/03 13:11:43;;;;;;;25.25;14.63;;;;;;;;;;5070253;28;20024;-45
2022/01/03 13:14:20;;;;;;;23.90;13.50;;;;;;;;;;5071050;28;20040;-45
2022/01/03 13:16:46;;;;;;;23.60;14.45;;;;;;;;;;5070434;28;20016;-44
2022/01/03 13:19:15;;;;;;;26.80;15.27;;;;;;;;;;5070221;28;20131;-44
2022/01/03 13:21:45;;;;;;;26.13;15.10;;;;;;;;;;5070292;28;20514;-44
2022/01/03 13:24:13;;;;;;;33.95;17.52;;;;;;;;;;5070190;28;20444;-44
2022/01/03 13:26:52;;;;;;;36.58;19.13;;;;;;;;;;5070039;28;20540;-44
2022/01/03 13:29:18;;;;;;;33.65;17.83;;;;;;;;;;5070677;28;20543;-45
2022/01/03 13:31:44;;;;;;;36.05;19.65;;;;;;;;;;5069940;28;20652;-49
2022/01/03 13:34:10;;;;;;;42.15;23.02;;;;;;;;;;5069893;28;20303;-43
2022/01/03 13:36:37;;;;;;;36.25;20.90;;;;;;;;;;5070151;28;20357;-47
2022/01/03 13:39:12;;;;;;;37.72;18.10;;;;;;;;;;5069487;28;20020;-43
2022/01/03 13:41:39;;;;;;;37.65;18.27;;;;;;;;;;5070037;28;20024;-46
2022/01/03 13:44:06;;;;;;;41.17;22.00;;;;;;;;;;5070287;28;20137;-43
2022/01/03 13:49:22;;;;;;;50.40;24.80;;;;;;;;;;5070244;28;20610;-45
2022/01/03 13:51:50;;;;;;;36.77;19.53;;;;;;;;;;5069231;28;20676;-45
2022/01/03 13:54:30;;;;;;;30.38;16.52;;;;;;;;;;5069653;28;20300;-47
2022/01/03 13:56:57;;;;;;;37.30;17.08;;;;;;;;;;5069375;28;20128;-47
2022/01/03 13:59:24;;;;;;;28.80;16.65;;;;;;;;;;5069948;28;20214;-47
2022/01/03 14:01:51;;;;;;;26.85;15.80;;;;;;;;;;5069543;28;20032;-46
2022/01/03 14:04:17;;;;;;;31.05;15.73;;;;;;;;;;5069358;28;20020;-46
2022/01/03 14:06:44;;;;;;;31.90;16.38;;;;;;;;;;5069239;28;20028;-47
2022/01/03 14:09:14;;;;;;;26.30;15.43;;;;;;;;;;5070148;28;20141;-45
2022/01/03 14:11:40;;;;;;;24.67;15.60;;;;;;;;;;5069196;28;20024;-45
2022/01/03 14:14:14;;;;;;;41.72;17.70;;;;;;;;;;5069395;28;20096;-46
2022/01/03 14:17:00;;;;;;;39.17;19.35;;;;;;;;;;5069336;28;20684;-47
2022/01/03 14:19:27;;;;;;;57.58;27.05;;;;;;;;;;5069064;28;20135;-46
2022/01/03 14:21:55;;;;;;;66.35;31.52;;;;;;;;;;5069283;28;20374;-44
2022/01/03 14:24:23;;;;;;;63.97;31.73;;;;;;;;;;5068779;28;20085;-46
2022/01/03 14:26:56;;;;;;;56.70;25.88;;;;;;;;;;5068953;28;20046;-43
2022/01/03 14:29:23;;;;;;;42.90;22.02;;;;;;;;;;5069352;28;20036;-43
2022/01/03 14:31:56;;;;;;;40.38;20.25;;;;;;;;;;5068847;28;20852;-44
2022/01/03 14:34:27;;;;;;;36.70;19.02;;;;;;;;;;5068571;28;20028;-43
2022/01/03 14:36:54;;;;;;;45.92;20.30;;;;;;;;;;5068915;28;20698;-43
2022/01/03 14:39:20;;;;;;;32.40;17.30;;;;;;;;;;5068825;28;20028;-44
2022/01/03 14:42:06;;;;;;;30.05;15.30;;;;;;;;;;5068722;28;20024;-44
2022/01/03 14:44:34;;;;;;;30.63;15.32;;;;;;;;;;5068574;28;20062;-44